EGNR

Hawarden Airport

Hawarden, United Kingdom
METAR EGNR 221750Z 25013KT 9999 FEW018 SCT035 13/06 Q1008
Observed Flight Rules
Apr-22 @ 17:50 UTC (4 hours ago) Visual Flight Rules
Wind Visibility Clouds
250° at 13 knots 10,000+ meters
  • Few at 1,800' AGL
  • Scattered at 3,500' AGL
Temperatures Readings
Current 13°C / 55°F
Dewpoint 6°C / 43°F
Humidity 63%
Altimeter 29.76" Hg
Pressure 1008 hPa
Elevation 10
METAR EGNR 221750Z 25013KT 9999 FEW018 SCT035 13/06 Q1008
Observed Flight Rules
Apr-22 @ 17:50 UTC
(4 hours ago)
VFR
Wind Visibility
250° at 13 knots 10,000+ meters
Clouds
  • Few at 1,800' AGL
  • Scattered at 3,500' AGL
Temperature Dewpoint
13°C / 55°F 6°C / 43°F
Humidity Altimeter Pressure
63% 29.76" Hg 1008 hPa